Time;durP1;ratioP1;P1;durP2;ratioP2;P2;SDS_P1;SDS_P2;PMS_P1;PMS_P2;Temp;Humidity;BMP_temperature;BMP_pressure;BME280_temperature;BME280_humidity;BME280_pressure;Samples;Min_cycle;Max_cycle;Signal;HPM_P1;HPM_P2
2022/06/01 00:00:44;;;;;;;10.30;4.50;;;;;;;8.75;96.30;100671.22;6022171;28;20383;-67
2022/06/01 00:03:41;;;;;;;9.60;4.88;;;;;;;9.10;97.17;100660.97;6026677;28;20113;-66
2022/06/01 00:06:36;;;;;;;11.18;4.95;;;;;;;8.96;96.67;100653.44;6029476;28;20389;-66
2022/06/01 00:09:31;;;;;;;9.03;4.67;;;;;;;9.29;97.61;100655.69;6027278;28;20033;-66
2022/06/01 00:12:29;;;;;;;10.47;5.07;;;;;;;8.95;96.52;100672.91;6025972;28;20038;-66
2022/06/01 00:15:26;;;;;;;8.77;5.22;;;;;;;9.02;97.08;100665.28;6026356;28;20030;-66
2022/06/01 00:18:22;;;;;;;9.63;5.13;;;;;;;8.99;97.08;100666.38;6026316;28;20026;-65
2022/06/01 00:21:17;;;;;;;12.10;5.65;;;;;;;9.37;97.64;100662.94;6025653;28;20074;-67
2022/06/01 00:24:12;;;;;;;9.93;5.70;;;;;;;9.32;97.69;100659.88;6031234;28;20041;-66
2022/06/01 00:27:08;;;;;;;9.57;4.63;;;;;;;9.37;97.37;100658.47;6015137;28;20042;-65
2022/06/01 00:30:05;;;;;;;11.43;6.07;;;;;;;9.51;97.51;100662.50;6026870;28;20529;-66
2022/06/01 00:33:01;;;;;;;9.43;5.10;;;;;;;9.17;96.57;100661.25;6025061;28;20038;-65
2022/06/01 00:35:56;;;;;;;11.38;5.18;;;;;;;9.00;97.20;100665.41;6025790;28;20390;-66
2022/06/01 00:38:52;;;;;;;9.37;5.53;;;;;;;9.08;96.97;100657.63;6035882;28;20037;-66
2022/06/01 00:41:47;;;;;;;9.33;5.50;;;;;;;9.17;97.57;100654.16;6031883;28;20534;-66
2022/06/01 00:44:44;;;;;;;9.63;5.33;;;;;;;9.46;97.19;100668.22;6019415;28;20034;-67
2022/06/01 00:47:39;;;;;;;9.00;4.82;;;;;;;9.34;96.41;100668.50;6025557;28;20286;-66
2022/06/01 00:50:36;;;;;;;8.30;4.50;;;;;;;9.17;96.52;100661.25;6025227;28;20499;-65
2022/06/01 00:53:34;;;;;;;8.73;4.65;;;;;;;9.08;96.83;100648.88;6042907;28;20281;-66
2022/06/01 00:56:39;;;;;;;9.05;4.38;;;;;;;8.91;96.87;100655.66;6041131;28;20138;-66
2022/06/01 00:59:39;;;;;;;8.65;4.57;;;;;;;8.87;96.21;100659.53;6025883;28;20038;-66
2022/06/01 01:02:35;;;;;;;8.25;4.00;;;;;;;8.78;96.24;100644.47;6024578;28;20042;-65
2022/06/01 01:05:33;;;;;;;8.45;4.47;;;;;;;8.76;96.80;100662.28;6024346;28;20023;-66
2022/06/01 01:08:28;;;;;;;8.95;4.35;;;;;;;8.86;96.50;100652.56;6026078;28;20045;-66
2022/06/01 01:11:26;;;;;;;10.03;3.87;;;;;;;8.77;96.60;100656.03;6025163;28;20026;-66
2022/06/01 01:14:23;;;;;;;7.90;4.25;;;;;;;8.80;96.84;100666.34;6025614;28;20107;-65
2022/06/01 01:17:21;;;;;;;6.93;3.55;;;;;;;8.78;96.75;100665.63;6026117;28;20042;-66
2022/06/01 01:20:17;;;;;;;8.63;4.72;;;;;;;8.99;96.98;100642.59;6025095;28;20061;-66
2022/06/01 01:23:31;;;;;;;7.45;3.95;;;;;;;8.99;96.85;100653.97;6023068;28;20048;-67
2022/06/01 01:26:27;;;;;;;8.80;4.82;;;;;;;9.00;95.94;100636.31;6039897;28;20077;-65
2022/06/01 01:29:35;;;;;;;6.80;3.78;;;;;;;9.14;95.84;100635.91;6025879;28;20046;-66
2022/06/01 01:32:30;;;;;;;13.32;4.40;;;;;;;9.08;95.33;100635.63;6025487;28;20470;-66
2022/06/01 01:35:26;;;;;;;11.23;3.83;;;;;;;8.91;95.37;100629.22;6028563;28;20061;-66
2022/06/01 01:39:09;;;;;;;9.17;3.60;;;;;;;9.08;95.77;100630.34;6025075;28;20034;-65
2022/06/01 01:42:06;;;;;;;6.97;3.72;;;;;;;9.18;95.34;100618.78;6028953;28;20073;-66
2022/06/01 01:45:13;;;;;;;9.50;4.72;;;;;;;9.34;95.48;100608.47;6029499;28;20037;-65
2022/06/01 01:48:08;;;;;;;;;;;;;;;9.46;94.42;100602.03;6028106;28;20065;-65
2022/06/01 01:51:05;;;;;;;7.20;3.93;;;;;;;9.52;94.00;100593.53;6028817;28;19913;-65
2022/06/01 01:54:00;;;;;;;6.85;3.92;;;;;;;9.45;93.67;100591.59;6029633;28;20088;-65
2022/06/01 01:57:14;;;;;;;9.07;4.97;;;;;;;9.53;94.55;100589.94;6029533;28;20034;-66
2022/06/01 02:00:18;;;;;;;8.93;4.88;;;;;;;9.54;94.17;100583.63;6018992;28;20033;-66
2022/06/01 02:03:25;;;;;;;11.88;5.32;;;;;;;9.54;94.49;100570.41;6030295;28;20034;-66
2022/06/01 02:06:26;;;;;;;;;;;;;;;9.73;94.59;100587.25;6005128;28;20042;-66
2022/06/01 02:09:21;;;;;;;10.77;4.70;;;;;;;9.75;94.14;100578.16;6059172;28;19929;-66
2022/06/01 02:15:35;;;;;;;9.95;4.57;;;;;;;9.85;93.11;100586.06;6027817;28;20277;-66
2022/06/01 02:18:38;;;;;;;9.57;4.50;;;;;;;9.76;93.72;100606.28;6027543;28;20470;-66
2022/06/01 02:21:33;;;;;;;6.63;3.75;;;;;;;9.68;94.13;100613.28;6029501;28;20022;-66
2022/06/01 02:24:29;;;;;;;7.93;4.30;;;;;;;9.61;94.53;100613.03;6038928;28;20066;-66
2022/06/01 02:27:24;;;;;;;8.32;4.45;;;;;;;9.67;95.08;100611.63;6044038;28;20038;-67
2022/06/01 02:30:26;;;;;;;8.00;4.17;;;;;;;9.83;95.01;100595.97;6024968;28;20091;-66
2022/06/01 02:33:27;;;;;;;9.32;4.32;;;;;;;9.73;94.25;100589.88;6038728;28;20273;-66
2022/06/01 02:36:24;;;;;;;9.10;4.35;;;;;;;9.84;94.33;100584.38;6030175;28;20499;-66
2022/06/01 02:39:19;;;;;;;9.63;5.13;;;;;;;9.75;93.70;100594.06;6028211;28;20038;-66
2022/06/01 02:42:25;;;;;;;8.00;4.65;;;;;;;9.87;93.83;100597.34;6044158;28;20029;-66
2022/06/01 02:45:24;;;;;;;8.85;5.00;;;;;;;9.85;93.53;100594.00;6027458;28;20089;-65
2022/06/01 02:48:19;;;;;;;9.27;4.72;;;;;;;9.85;93.17;100608.09;6028133;28;20089;-65
2022/06/01 02:51:17;;;;;;;8.80;4.40;;;;;;;9.77;93.75;100601.84;6026993;28;20371;-66
2022/06/01 02:54:12;;;;;;;8.55;4.80;;;;;;;9.94;93.40;100614.34;6027495;28;20046;-66
2022/06/01 02:57:08;;;;;;;8.27;4.70;;;;;;;9.88;93.42;100610.47;6038328;28;20037;-65
2022/06/01 03:00:07;;;;;;;10.25;5.10;;;;;;;9.89;93.56;100608.66;6027356;28;20030;-65
2022/06/01 03:03:04;;;;;;;9.02;4.40;;;;;;;9.81;93.21;100608.53;6036662;28;20482;-66
2022/06/01 03:06:00;;;;;;;10.65;5.30;;;;;;;9.80;93.41;100617.44;6029534;28;20148;-66
2022/06/01 03:08:55;;;;;;;9.65;5.13;;;;;;;9.71;93.72;100623.59;6032420;28;20034;-67
2022/06/01 03:11:51;;;;;;;14.02;6.05;;;;;;;9.61;93.98;100622.78;6027899;28;20070;-66
2022/06/01 03:14:46;;;;;;;11.53;5.37;;;;;;;9.58;94.40;100616.81;6027536;28;20027;-66
2022/06/01 03:17:43;;;;;;;10.10;5.55;;;;;;;9.67;94.74;100616.94;6039778;28;20100;-67
2022/06/01 03:20:38;;;;;;;10.77;5.00;;;;;;;9.63;94.46;100620.81;6026677;28;20089;-66
2022/06/01 03:23:34;;;;;;;10.80;5.38;;;;;;;9.65;94.54;100617.06;6027091;28;20074;-67
2022/06/01 03:26:30;;;;;;;7.72;4.53;;;;;;;9.59;94.68;100615.00;6027675;28;20038;-66
2022/06/01 03:29:25;;;;;;;12.32;5.05;;;;;;;9.66;94.65;100616.09;6027874;28;20045;-66
2022/06/01 03:32:21;;;;;;;10.40;4.80;;;;;;;9.76;94.82;100619.53;6026816;28;20042;-67
2022/06/01 03:35:19;;;;;;;11.80;5.68;;;;;;;9.91;95.14;100625.22;6028008;28;20038;-66
2022/06/01 03:38:14;;;;;;;10.63;4.80;;;;;;;9.81;94.03;100627.88;6026484;28;20117;-66
2022/06/01 03:41:10;;;;;;;11.27;4.77;;;;;;;9.73;94.20;100626.94;6026485;28;20046;-66
2022/06/01 03:47:19;;;;;;;7.95;4.90;;;;;;;9.86;94.37;100638.06;6029813;28;20030;-67
2022/06/01 03:50:14;;;;;;;11.30;5.32;;;;;;;9.85;93.63;100626.63;6026288;28;20031;-67
2022/06/01 03:53:10;;;;;;;8.80;4.97;;;;;;;9.93;93.61;100628.56;6026346;28;20100;-66
2022/06/01 03:56:07;;;;;;;9.50;5.00;;;;;;;9.89;93.03;100617.41;6026622;28;20048;-66
2022/06/01 03:59:02;;;;;;;10.02;5.55;;;;;;;9.82;92.87;100632.22;6026686;28;20305;-65
2022/06/01 04:02:03;;;;;;;8.60;5.30;;;;;;;9.79;92.72;100642.25;6025069;28;20180;-66
2022/06/01 04:04:59;;;;;;;10.55;4.88;;;;;;;9.73;92.92;100642.84;6015656;28;20034;-66
2022/06/01 04:07:54;;;;;;;10.10;5.20;;;;;;;9.68;92.79;100645.06;6030383;28;20058;-65
2022/06/01 04:10:49;;;;;;;10.47;5.43;;;;;;;9.76;92.95;100661.91;6024982;28;20038;-65
2022/06/01 04:13:45;;;;;;;10.38;5.60;;;;;;;9.76;93.15;100655.78;6027265;28;20065;-66
2022/06/01 04:16:40;;;;;;;10.13;5.87;;;;;;;9.68;91.92;100645.06;6026259;28;20106;-66
2022/06/01 04:19:35;;;;;;;12.37;5.93;;;;;;;9.77;92.00;100658.28;6025468;28;20269;-66
2022/06/01 04:22:31;;;;;;;9.80;5.00;;;;;;;9.82;92.25;100657.84;6024738;28;20074;-66
2022/06/01 04:25:28;;;;;;;9.43;5.18;;;;;;;9.90;92.24;100652.69;6026285;28;20026;-66
2022/06/01 04:28:23;;;;;;;10.60;5.55;;;;;;;9.91;91.67;100657.00;6026118;28;20470;-66
2022/06/01 04:31:19;;;;;;;11.53;5.53;;;;;;;9.89;91.28;100664.28;6030294;28;20037;-64
2022/06/01 04:34:14;;;;;;;10.55;5.22;;;;;;;9.93;91.42;100665.63;6026307;28;20065;-66
2022/06/01 04:37:09;;;;;;;11.50;5.20;;;;;;;9.89;91.25;100666.91;6025946;28;20042;-65
2022/06/01 04:40:05;;;;;;;8.77;4.87;;;;;;;9.87;91.41;100663.56;6032021;28;20029;-67
2022/06/01 04:43:01;;;;;;;10.38;5.57;;;;;;;9.92;91.00;100666.63;6026206;28;20026;-65
2022/06/01 04:45:56;;;;;;;9.77;5.17;;;;;;;9.79;90.92;100648.38;6025585;28;20042;-66
2022/06/01 04:48:51;;;;;;;10.65;5.50;;;;;;;9.94;91.09;100662.03;6025021;28;20037;-66
2022/06/01 04:51:47;;;;;;;10.53;5.10;;;;;;;10.11;90.99;100658.59;6019734;28;20038;-67
2022/06/01 04:54:42;;;;;;;10.13;5.53;;;;;;;10.10;90.32;100654.31;6025296;28;20027;-66
2022/06/01 04:57:39;;;;;;;9.88;5.38;;;;;;;10.21;89.93;100648.88;6025785;28;20292;-67
2022/06/01 05:00:35;;;;;;;9.60;4.60;;;;;;;10.49;89.64;100642.59;6024867;28;20085;-66
2022/06/01 05:03:30;;;;;;;10.70;5.10;;;;;;;10.72;88.25;100654.47;6027135;28;20038;-66
2022/06/01 05:06:26;;;;;;;7.97;4.45;;;;;;;10.88;88.01;100642.38;6026010;28;20080;-66
2022/06/01 05:09:21;;;;;;;9.57;5.05;;;;;;;11.09;86.73;100645.56;6025398;28;20045;-67
2022/06/01 05:12:17;;;;;;;8.43;4.70;;;;;;;11.16;85.97;100641.34;6030824;28;20034;-65
2022/06/01 05:15:12;;;;;;;9.68;4.60;;;;;;;10.85;86.11;100653.28;6036308;28;20351;-65
2022/06/01 05:18:09;;;;;;;7.88;4.30;;;;;;;10.95;85.25;100638.94;6030436;28;20450;-65
2022/06/01 05:21:05;;;;;;;9.15;4.82;;;;;;;11.60;85.14;100632.44;6029560;28;20030;-67
2022/06/01 05:24:00;;;;;;;9.13;4.77;;;;;;;12.01;82.54;100648.69;6030007;28;20058;-66
2022/06/01 05:26:56;;;;;;;6.90;4.20;;;;;;;12.25;81.80;100646.16;6029583;28;20573;-66
2022/06/01 05:29:51;;;;;;;7.20;4.00;;;;;;;13.05;78.78;100640.28;6029877;28;20026;-66
2022/06/01 05:32:46;;;;;;;7.03;4.03;;;;;;;13.77;76.16;100647.53;6029585;28;20038;-66
2022/06/01 05:35:42;;;;;;;6.63;4.00;;;;;;;14.68;72.17;100645.28;6029960;28;20118;-66
2022/06/01 05:38:37;;;;;;;7.50;3.90;;;;;;;14.88;72.07;100644.69;6031214;28;20038;-66
2022/06/01 05:41:33;;;;;;;7.28;4.10;;;;;;;14.50;72.15;100647.34;6029183;28;20269;-66
2022/06/01 05:44:28;;;;;;;6.97;4.32;;;;;;;14.04;72.84;100652.47;6029510;28;20022;-65
2022/06/01 05:47:24;;;;;;;9.67;3.90;;;;;;;14.08;72.80;100661.78;6030022;28;20041;-67
2022/06/01 05:50:19;;;;;;;8.15;4.20;;;;;;;13.59;73.11;100668.16;6028778;28;20444;-66
2022/06/01 05:53:15;;;;;;;6.93;4.17;;;;;;;12.99;74.84;100673.72;6032877;28;20062;-66
2022/06/01 05:56:10;;;;;;;8.80;4.03;;;;;;;12.62;77.13;100673.25;6041514;28;20285;-65
2022/06/01 05:59:06;;;;;;;10.35;4.40;;;;;;;12.68;77.61;100680.59;6029981;28;20125;-67
2022/06/01 06:02:01;;;;;;;7.87;4.80;;;;;;;12.76;77.31;100677.97;6036787;28;20042;-66
2022/06/01 06:04:56;;;;;;;7.23;4.33;;;;;;;12.67;77.50;100672.75;6034616;28;20055;-65
2022/06/01 06:07:51;;;;;;;9.13;4.53;;;;;;;12.80;77.74;100684.63;6043206;28;20049;-65
2022/06/01 06:10:47;;;;;;;7.30;4.70;;;;;;;13.16;76.55;100689.75;6031342;28;20034;-66
2022/06/01 06:13:42;;;;;;;9.02;5.03;;;;;;;13.05;76.48;100693.53;6025625;28;20045;-65
2022/06/01 06:16:46;;;;;;;8.10;4.40;;;;;;;13.29;76.29;100684.81;6029013;28;20640;-66
2022/06/01 06:19:41;;;;;;;7.93;4.45;;;;;;;13.28;75.54;100689.28;6032154;28;20035;-66
2022/06/01 06:22:36;;;;;;;9.07;4.97;;;;;;;13.32;75.75;100703.09;6028451;28;20038;-65
2022/06/01 06:25:32;;;;;;;10.50;4.93;;;;;;;13.18;74.81;100703.75;6028437;28;20034;-66
2022/06/01 06:28:27;;;;;;;7.80;4.83;;;;;;;13.13;74.93;100696.25;6028068;28;20046;-67
2022/06/01 06:31:23;;;;;;;10.60;5.07;;;;;;;13.22;75.06;100692.59;6039665;28;20058;-67
2022/06/01 06:34:18;;;;;;;9.48;4.65;;;;;;;13.59;74.97;100708.97;6028516;28;20066;-65
2022/06/01 06:37:14;;;;;;;11.77;4.70;;;;;;;13.54;73.79;100699.78;6028494;28;20030;-65
2022/06/01 06:40:10;;;;;;;7.63;4.93;;;;;;;13.71;73.80;100698.81;6030343;28;20125;-67
2022/06/01 06:43:05;;;;;;;10.18;5.30;;;;;;;14.19;70.56;100692.59;6031303;28;20064;-66
2022/06/01 06:46:06;;;;;;;11.03;4.43;;;;;;;14.52;69.66;100690.72;6030138;28;20033;-66
2022/06/01 06:49:01;;;;;;;7.82;4.45;;;;;;;14.87;67.43;100699.09;6031796;28;20576;-66
2022/06/01 06:51:56;;;;;;;9.13;4.47;;;;;;;15.02;67.97;100691.19;6027583;28;20034;-64
2022/06/01 06:54:52;;;;;;;8.60;4.87;;;;;;;15.51;66.53;100693.56;6028277;28;20037;-66
2022/06/01 06:57:47;;;;;;;10.35;4.88;;;;;;;15.34;65.51;100703.50;6033189;28;20383;-66
2022/06/01 07:00:43;;;;;;;7.23;4.70;;;;;;;15.41;64.64;100699.09;6027621;28;20037;-66
2022/06/01 07:03:38;;;;;;;8.18;5.13;;;;;;;15.35;64.84;100700.66;6027803;28;20022;-66
2022/06/01 07:06:33;;;;;;;10.00;5.43;;;;;;;15.54;64.72;100699.41;6029021;28;20069;-67
2022/06/01 07:09:30;;;;;;;8.67;4.53;;;;;;;16.09;63.26;100699.91;6031640;28;20129;-66
2022/06/01 07:12:26;;;;;;;9.15;4.85;;;;;;;15.86;64.56;100711.66;6026744;28;20122;-65
2022/06/01 07:15:21;;;;;;;7.80;4.83;;;;;;;15.88;65.14;100706.97;6027307;28;20030;-66
2022/06/01 07:18:16;;;;;;;8.73;4.80;;;;;;;16.36;65.17;100705.69;6033629;28;20272;-67
2022/06/01 07:21:14;;;;;;;8.03;5.10;;;;;;;16.33;62.25;100700.69;6037905;28;20041;-65
2022/06/01 07:24:10;;;;;;;8.18;4.68;;;;;;;16.57;63.29;100701.28;6026573;28;20471;-66
2022/06/01 07:27:05;;;;;;;8.20;4.87;;;;;;;16.62;60.71;100706.06;6039649;28;20035;-66
2022/06/01 07:30:00;;;;;;;6.70;4.47;;;;;;;16.73;61.79;100696.75;6030835;28;20351;-66
2022/06/01 07:32:56;;;;;;;9.70;4.63;;;;;;;16.61;59.96;100704.41;6030964;28;20038;-66
2022/06/01 07:35:53;;;;;;;8.68;4.80;;;;;;;16.16;61.84;100721.44;6026650;28;20104;-66
2022/06/01 07:45:17;;;;;;;9.18;5.10;;;;;;;15.88;62.95;100712.31;6020114;28;20080;-65
2022/06/01 07:48:13;;;;;;;7.07;4.70;;;;;;;16.32;61.59;100707.03;6037094;28;20037;-66
2022/06/01 07:51:08;;;;;;;9.23;4.95;;;;;;;16.64;59.77;100715.59;6033292;28;20038;-65
2022/06/01 07:54:04;;;;;;;6.77;5.20;;;;;;;16.85;59.77;100712.13;6026937;28;20037;-66
2022/06/01 07:56:59;;;;;;;8.98;5.18;;;;;;;16.71;58.94;100709.50;6036073;28;20363;-66
2022/06/01 07:59:55;;;;;;;7.20;4.50;;;;;;;16.45;59.37;100708.06;6026624;28;20101;-66
2022/06/01 08:02:50;;;;;;;6.80;4.40;;;;;;;17.15;60.37;100720.97;6025999;28;20034;-66
2022/06/01 08:05:45;;;;;;;9.07;3.90;;;;;;;17.41;57.65;100718.59;6025852;28;20466;-66
2022/06/01 08:08:41;;;;;;;12.10;6.30;;;;;;;17.02;55.88;100723.47;6033991;28;20036;-67
2022/06/01 08:14:50;;;;;;;9.35;4.40;;;;;;;17.73;56.23;100717.28;6025893;28;20038;-66
2022/06/01 08:17:47;;;;;;;6.63;3.90;;;;;;;17.48;56.73;100726.69;6031054;28;20037;-66
2022/06/01 08:20:43;;;;;;;10.70;4.85;;;;;;;16.89;55.70;100734.88;6027767;28;20030;-66
2022/06/01 08:23:38;;;;;;;7.03;4.38;;;;;;;16.85;57.26;100736.25;6027955;28;20061;-67
2022/06/01 08:26:34;;;;;;;8.60;5.07;;;;;;;16.83;56.00;100735.59;6026977;28;20034;-66
2022/06/01 08:29:29;;;;;;;9.50;4.40;;;;;;;16.44;57.17;100741.19;6026859;28;20038;-66
2022/06/01 08:32:24;;;;;;;8.60;4.40;;;;;;;16.49;57.28;100738.81;6025265;28;20038;-66
2022/06/01 08:35:27;;;;;;;6.70;4.00;;;;;;;16.87;58.20;100736.91;6026136;28;20034;-66
2022/06/01 08:38:23;;;;;;;6.55;4.10;;;;;;;16.77;56.70;100730.19;6025732;28;20041;-67
2022/06/01 08:41:21;;;;;;;7.87;3.90;;;;;;;16.64;57.20;100731.66;6029137;28;20393;-67
2022/06/01 08:44:28;;;;;;;7.47;4.10;;;;;;;16.96;56.03;100730.41;6039865;28;20046;-67
2022/06/01 08:47:28;;;;;;;7.03;4.60;;;;;;;17.23;53.12;100737.75;6026716;28;20034;-67
2022/06/01 08:50:32;;;;;;;7.20;4.35;;;;;;;17.05;55.82;100734.66;6024808;28;20070;-66
2022/06/01 08:53:28;;;;;;;7.70;4.40;;;;;;;16.96;56.44;100732.28;6026195;28;20045;-66
2022/06/01 08:56:45;;;;;;;7.68;4.38;;;;;;;16.96;55.98;100730.41;6025576;28;20078;-67
2022/06/01 08:59:48;;;;;;;6.63;4.32;;;;;;;16.84;56.86;100725.72;6033723;28;20113;-67
2022/06/01 09:02:58;;;;;;;7.30;4.00;;;;;;;16.93;55.08;100713.91;6029876;28;20034;-65
2022/06/01 09:06:04;;;;;;;5.32;3.30;;;;;;;16.95;56.81;100720.75;6027487;28;20097;-67
2022/06/01 09:09:10;;;;;;;6.30;3.95;;;;;;;16.51;54.64;100714.53;6043387;28;20054;-65
2022/06/01 09:12:06;;;;;;;6.75;2.88;;;;;;;16.48;55.59;100726.44;6029938;28;20453;-66
2022/06/01 09:15:10;;;;;;;5.22;2.90;;;;;;;16.75;55.02;100721.47;6026398;28;20050;-66
2022/06/01 09:18:05;;;;;;;4.60;3.05;;;;;;;16.96;53.78;100725.06;6024411;28;20034;-65
2022/06/01 09:24:19;;;;;;;6.20;3.20;;;;;;;17.87;52.39;100718.22;6024677;28;20402;-66
2022/06/01 09:27:15;;;;;;;6.47;3.08;;;;;;;17.81;51.08;100717.97;6042820;28;20046;-67
2022/06/01 09:30:41;;;;;;;6.25;3.00;;;;;;;18.23;52.07;100719.78;6039039;28;20080;-66
2022/06/01 09:33:37;;;;;;;5.10;2.80;;;;;;;17.53;51.96;100716.25;6033849;28;20069;-65
2022/06/01 09:36:33;;;;;;;5.20;2.95;;;;;;;16.85;54.40;100733.56;6024054;28;20050;-67
2022/06/01 09:39:28;;;;;;;6.00;3.17;;;;;;;16.35;56.66;100741.47;6035227;28;20046;-66
2022/06/01 09:42:28;;;;;;;6.67;3.23;;;;;;;15.54;61.89;100752.00;6024947;28;20052;-66
2022/06/01 09:45:23;;;;;;;5.47;2.45;;;;;;;14.57;64.78;100768.41;6026562;28;20035;-66
2022/06/01 09:48:33;;;;;;;5.47;3.35;;;;;;;13.87;69.19;100769.94;6024947;28;20034;-66
2022/06/01 09:51:29;;;;;;;7.30;3.90;;;;;;;13.13;75.31;100776.13;6023639;28;20498;-66
2022/06/01 09:54:26;;;;;;;5.70;2.90;;;;;;;12.35;78.27;100770.03;6026157;28;20045;-64
2022/06/01 09:57:32;;;;;;;5.10;3.30;;;;;;;11.98;80.33;100765.94;6025418;28;20036;-66
2022/06/01 10:07:24;;;;;;;6.68;3.15;;;;;;;12.50;80.21;100770.31;6035951;28;20030;-65
2022/06/01 10:10:23;;;;;;;5.43;2.42;;;;;;;12.74;77.79;100758.97;6028740;28;20449;-65
2022/06/01 10:13:26;;;;;;;5.75;2.30;;;;;;;12.76;76.36;100752.47;6044696;28;20045;-65
2022/06/01 10:16:40;;;;;;;4.60;2.25;;;;;;;13.11;76.55;100770.97;6027962;28;20031;-65
2022/06/01 10:19:43;;;;;;;4.28;2.47;;;;;;;13.24;74.44;100767.00;6049207;28;20042;-66
2022/06/01 10:22:42;;;;;;;3.97;2.40;;;;;;;13.56;74.29;100767.09;6032314;28;20092;-65
2022/06/01 10:25:54;;;;;;;7.03;3.05;;;;;;;13.47;73.12;100752.09;6028807;28;20065;-65
2022/06/01 10:29:21;;;;;;;5.85;2.92;;;;;;;13.78;73.07;100755.78;6043982;28;20494;-65
2022/06/01 10:32:30;;;;;;;4.80;3.05;;;;;;;14.55;73.70;100754.41;6017812;28;20049;-66
2022/06/01 10:35:34;;;;;;;3.47;2.38;;;;;;;15.22;70.60;100745.81;6035797;28;20493;-67
2022/06/01 10:38:35;;;;;;;3.88;2.33;;;;;;;15.43;68.10;100743.38;6047072;28;20038;-67
2022/06/01 10:41:38;;;;;;;3.53;2.38;;;;;;;15.91;64.80;100733.34;6028178;28;20034;-66
2022/06/01 10:44:39;;;;;;;5.35;2.97;;;;;;;16.36;64.74;100733.25;6028247;28;20418;-66
2022/06/01 10:47:56;;;;;;;7.22;3.03;;;;;;;16.98;63.68;100739.13;6067092;28;20038;-66
2022/06/01 10:51:09;;;;;;;4.82;3.20;;;;;;;17.02;59.79;100734.19;6027597;28;20033;-66
2022/06/01 10:54:16;;;;;;;;;;;;;;;17.54;61.19;100736.69;6031952;28;20044;-66
2022/06/01 10:57:17;;;;;;;6.03;3.42;;;;;;;17.79;58.53;100725.41;6046548;28;20004;-65
2022/06/01 11:00:22;;;;;;;6.10;3.75;;;;;;;17.84;58.97;100730.19;6042767;28;20069;-66
2022/06/01 11:03:36;;;;;;;6.35;3.45;;;;;;;17.98;55.91;100731.13;6028166;28;20068;-67
2022/06/01 11:07:07;;;;;;;5.72;3.22;;;;;;;18.47;54.57;100725.72;6028084;28;20038;-66
2022/06/01 11:10:23;;;;;;;6.68;3.72;;;;;;;18.78;52.63;100713.53;6014718;28;20089;-66
2022/06/01 11:13:31;;;;;;;5.68;3.70;;;;;;;18.60;50.89;100710.53;6033672;28;20041;-66
2022/06/01 11:16:39;;;;;;;4.45;3.10;;;;;;;19.06;52.33;100715.31;6027448;28;20105;-66
2022/06/01 11:19:53;;;;;;;5.35;3.33;;;;;;;19.28;51.44;100706.91;6042691;28;20105;-66
2022/06/01 11:22:56;;;;;;;4.63;3.22;;;;;;;19.09;51.29;100709.53;6030401;28;20054;-67
2022/06/01 11:26:01;;;;;;;4.82;3.03;;;;;;;18.84;51.96;100720.78;6032278;28;20116;-66
2022/06/01 11:29:15;;;;;;;5.45;2.78;;;;;;;18.17;52.15;100731.31;6027793;28;20426;-66
2022/06/01 11:32:16;;;;;;;5.65;3.45;;;;;;;17.79;55.74;100725.41;6027465;28;20124;-66
2022/06/01 11:35:32;;;;;;;5.90;3.28;;;;;;;17.47;57.16;100722.38;6044736;28;20049;-67
2022/06/01 11:38:34;;;;;;;6.32;4.20;;;;;;;17.01;58.62;100728.00;6026759;28;20394;-66
2022/06/01 11:41:34;;;;;;;5.13;4.15;;;;;;;16.52;60.55;100733.06;6029194;28;20038;-66
2022/06/01 11:44:36;;;;;;;6.13;3.80;;;;;;;17.29;61.25;100738.84;6032054;28;20496;-66
2022/06/01 11:47:40;;;;;;;6.85;4.18;;;;;;;17.77;58.15;100718.56;6030853;28;20402;-67
2022/06/01 11:50:52;;;;;;;8.10;3.80;;;;;;;18.55;54.87;100722.91;6025080;28;20117;-66
2022/06/01 11:53:58;;;;;;;5.63;3.15;;;;;;;19.02;53.75;100707.63;6035125;28;20478;-66
2022/06/01 11:57:01;;;;;;;;;;;;;;;18.95;54.14;100720.22;6028627;28;20389;-66
2022/06/01 12:00:28;;;;;;;5.63;3.03;;;;;;;19.42;53.65;100707.81;6028137;28;19913;-67
2022/06/01 12:03:39;;;;;;;7.40;3.83;;;;;;;19.59;53.01;100706.41;6030871;28;20504;-66
2022/06/01 12:06:44;;;;;;;5.95;3.40;;;;;;;19.44;48.97;100716.50;6029038;28;20489;-67
2022/06/01 12:09:57;;;;;;;6.95;3.50;;;;;;;19.31;48.96;100719.13;6026319;28;20034;-66
2022/06/01 12:13:02;;;;;;;7.00;3.60;;;;;;;19.10;51.04;100721.94;6030358;28;20035;-67
2022/06/01 12:16:15;;;;;;;7.65;5.50;;;;;;;19.11;50.72;100712.84;6028227;28;20062;-67
2022/06/01 12:19:32;;;;;;;4.28;3.00;;;;;;;19.32;51.68;100715.41;6029916;28;20031;-67
2022/06/01 12:29:07;;;;;;;6.30;3.33;;;;;;;19.74;48.02;100703.50;6029229;28;20077;-67
2022/06/01 12:32:03;;;;;;;5.00;3.13;;;;;;;20.28;49.86;100708.69;6026445;28;20547;-67
2022/06/01 12:35:04;;;;;;;6.15;3.20;;;;;;;19.74;50.21;100706.19;6027058;28;20062;-67
2022/06/01 12:38:04;;;;;;;6.47;3.13;;;;;;;18.94;51.32;100704.31;6030103;28;20124;-66
2022/06/01 12:41:01;;;;;;;;;;;;;;;18.13;53.23;100711.22;6026898;28;20894;-66
2022/06/01 12:43:58;;;;;;;4.60;3.33;;;;;;;17.08;54.69;100722.75;6034374;28;19910;-67
2022/06/01 12:46:53;;;;;;;6.32;3.58;;;;;;;16.67;57.68;100736.63;6024892;28;20094;-65
2022/06/01 12:49:48;;;;;;;10.90;3.90;;;;;;;14.76;72.51;100758.19;6027121;28;20070;-70
2022/06/01 12:52:44;;;;;;;8.20;3.73;;;;;;;13.71;78.95;100754.78;6026671;28;20030;-67
2022/06/01 12:55:40;;;;;;;8.60;4.80;;;;;;;13.00;83.02;100762.38;6024315;28;20033;-65
2022/06/01 12:58:36;;;;;;;7.20;4.80;;;;;;;12.72;86.42;100753.78;6025820;28;20030;-66
2022/06/01 13:01:32;;;;;;;7.85;5.18;;;;;;;12.76;87.38;100757.81;6025373;28;20310;-65
2022/06/01 13:04:28;;;;;;;9.25;5.10;;;;;;;12.88;88.58;100756.50;6025847;28;20026;-66
2022/06/01 13:07:29;;;;;;;7.83;5.13;;;;;;;13.04;89.71;100761.91;6027035;28;20034;-67
2022/06/01 13:10:33;;;;;;;9.52;5.50;;;;;;;13.02;89.95;100774.53;6023920;28;20474;-66
2022/06/01 13:13:29;;;;;;;17.90;9.38;;;;;;;13.19;91.39;100777.31;6040682;28;20609;-66
2022/06/01 13:16:34;;;;;;;14.88;9.27;;;;;;;13.34;90.98;100789.03;6026790;28;20474;-66
2022/06/01 13:19:30;;;;;;;12.30;7.03;;;;;;;13.20;87.87;100786.97;6026835;28;20064;-66
2022/06/01 13:22:37;;;;;;;10.48;4.15;;;;;;;12.66;85.00;100783.69;6026134;28;20081;-67
2022/06/01 13:25:34;;;;;;;7.32;4.13;;;;;;;12.67;85.10;100763.22;6036733;28;20038;-67
2022/06/01 13:28:29;;;;;;;4.03;2.70;;;;;;;13.19;84.05;100758.66;6025498;28;20042;-67
2022/06/01 13:31:24;;;;;;;5.37;2.33;;;;;;;13.82;83.00;100745.63;6024890;28;20057;-67
2022/06/01 13:34:23;;;;;;;3.53;1.90;;;;;;;14.53;78.89;100751.94;6026756;28;20034;-66
2022/06/01 13:37:19;;;;;;;2.90;1.90;;;;;;;15.54;79.31;100746.66;6038293;28;20293;-67
2022/06/01 13:40:22;;;;;;;3.88;1.85;;;;;;;16.16;76.64;100742.84;6030459;28;20493;-67
2022/06/01 13:43:18;;;;;;;3.50;2.22;;;;;;;16.98;75.83;100744.47;6030226;28;20569;-66
2022/06/01 13:46:17;;;;;;;4.00;1.88;;;;;;;17.26;71.35;100748.09;6029982;28;20037;-67
2022/06/01 13:49:15;;;;;;;2.60;1.80;;;;;;;17.31;70.38;100747.56;6028677;28;20026;-68
2022/06/01 13:52:12;;;;;;;2.38;1.77;;;;;;;17.82;68.23;100742.97;6028920;28;20030;-67
2022/06/01 13:55:29;;;;;;;3.63;2.05;;;;;;;17.91;60.55;100746.34;6030063;28;20165;-68
2022/06/01 13:58:32;;;;;;;3.30;2.10;;;;;;;17.99;62.27;100740.84;6030645;28;20045;-68
2022/06/01 14:01:51;;;;;;;2.95;2.17;;;;;;;18.48;60.80;100738.97;6029070;28;20391;-67
2022/06/01 14:04:50;;;;;;;3.75;2.40;;;;;;;18.73;61.17;100732.09;6004767;28;20049;-67
2022/06/01 14:07:55;;;;;;;3.78;2.50;;;;;;;19.21;55.09;100734.81;6029184;28;20113;-67
2022/06/01 14:10:52;;;;;;;4.45;2.80;;;;;;;19.50;54.52;100732.66;6035003;28;20039;-68
2022/06/01 14:13:48;;;;;;;4.78;2.85;;;;;;;19.30;53.57;100730.91;6031198;28;20034;-67
2022/06/01 14:16:51;;;;;;;5.28;3.30;;;;;;;18.02;56.31;100740.47;6029919;28;20061;-67
2022/06/01 14:19:47;;;;;;;4.22;3.42;;;;;;;17.64;58.29;100740.72;6045356;28;20034;-67
2022/06/01 14:22:42;;;;;;;6.13;4.00;;;;;;;17.16;61.06;100746.75;6029449;28;20054;-67
2022/06/01 14:28:51;;;;;;;5.97;3.53;;;;;;;16.34;61.55;100762.06;6039433;28;20121;-66
2022/06/01 14:31:47;;;;;;;6.60;3.90;;;;;;;15.99;64.61;100773.41;6035518;28;20359;-67